Time;durP1;ratioP1;P1;durP2;ratioP2;P2;SDS_P1;SDS_P2;PMS_P1;PMS_P2;Temp;Humidity;BMP_temperature;BMP_pressure;BME280_temperature;BME280_humidity;BME280_pressure;Samples;Min_cycle;Max_cycle;Signal;HPM_P1;HPM_P2
2023/04/02 00:01:46;;;;;;;12.60;7.80;;;;;;;4.33;87.37;98959.98;217886;1256;140685;-72
2023/04/02 00:07:29;;;;;;;9.20;7.80;;;;;;;4.32;87.20;98965.09;219111;1256;140421;-67
2023/04/02 00:12:33;;;;;;;9.70;7.30;;;;;;;4.33;87.35;98973.90;217858;1257;140335;-70
2023/04/02 00:17:38;;;;;;;9.00;6.20;;;;;;;4.32;87.67;98977.88;217663;1256;140393;-69
2023/04/02 00:22:44;;;;;;;7.10;4.70;;;;;;;4.34;87.57;98983.11;217665;1257;140394;-70
2023/04/02 00:27:49;;;;;;;10.20;7.60;;;;;;;4.31;87.50;98988.40;217795;1258;140302;-75
2023/04/02 00:32:53;;;;;;;9.60;7.30;;;;;;;4.27;87.63;98988.81;218503;1254;140094;-69
2023/04/02 00:37:59;;;;;;;9.40;7.70;;;;;;;4.22;87.25;98992.17;218962;1254;139664;-71
2023/04/02 00:43:05;;;;;;;8.00;6.50;;;;;;;4.15;87.39;98987.13;217483;1257;139477;-76
2023/04/02 00:48:40;;;;;;;8.60;7.80;;;;;;;4.10;87.25;98991.21;219026;1256;141971;-68
2023/04/02 00:53:47;;;;;;;12.00;7.80;;;;;;;4.08;87.70;98999.05;217951;1259;139679;-73
2023/04/02 00:58:54;;;;;;;;;;;;;;;4.11;87.66;99004.02;218849;1257;139555;-71
2023/04/02 01:04:01;;;;;;;6.10;5.40;;;;;;;4.09;87.61;99010.73;219520;1257;127768;-71
2023/04/02 01:09:50;;;;;;;8.20;7.00;;;;;;;4.05;87.49;99014.23;220473;1257;222083;-72
2023/04/02 01:15:15;;;;;;;8.30;5.10;;;;;;;4.05;87.53;99022.79;220011;1257;140232;-71
2023/04/02 01:20:46;;;;;;;8.00;6.00;;;;;;;4.04;87.29;99025.19;220553;1254;140383;-71
2023/04/02 01:26:02;;;;;;;6.00;4.70;;;;;;;4.05;87.29;99030.18;218935;1256;141450;-70
2023/04/02 01:31:06;;;;;;;8.50;6.00;;;;;;;4.04;87.31;99026.65;219566;1257;140748;-70
2023/04/02 01:36:34;;;;;;;8.30;6.00;;;;;;;4.03;87.32;99027.47;219734;1254;140276;-69
2023/04/02 01:41:48;;;;;;;5.40;4.80;;;;;;;4.01;87.19;99032.10;219328;1257;140466;-70
2023/04/02 01:46:52;;;;;;;8.30;5.80;;;;;;;3.96;87.15;99035.19;219270;1256;139860;-70
2023/04/02 01:51:57;;;;;;;6.50;4.70;;;;;;;3.93;87.46;99041.52;219035;1256;140058;-68
2023/04/02 01:57:03;;;;;;;5.70;4.50;;;;;;;3.92;87.40;99042.10;219223;1255;139636;-68
2023/04/02 02:02:13;;;;;;;7.10;5.80;;;;;;;3.88;87.37;99044.95;217928;1259;231335;-68
2023/04/02 02:07:20;;;;;;;5.20;4.70;;;;;;;3.86;87.51;99053.30;217648;1256;139601;-68
2023/04/02 02:12:25;;;;;;;6.50;5.20;;;;;;;3.82;87.72;99061.88;218630;1257;139407;-69
2023/04/02 05:10:00;;;;;;;3.90;3.60;;;;;;;2.58;88.77;99254.02;213634;1290;361934;-67
2023/04/02 05:15:10;;;;;;;4.10;3.70;;;;;;;2.60;88.74;99265.11;217456;1266;139854;-68
2023/04/02 05:20:29;;;;;;;4.30;3.90;;;;;;;2.65;88.90;99269.96;217812;1266;139133;-68
2023/04/02 05:25:32;;;;;;;4.90;4.50;;;;;;;2.71;89.05;99275.91;217518;1266;138830;-68
2023/04/02 05:31:04;;;;;;;4.90;4.40;;;;;;;2.78;89.21;99280.59;217648;1267;139848;-67
2023/04/02 05:36:17;;;;;;;6.10;5.50;;;;;;;2.82;88.93;99285.86;216268;1272;138938;-69
2023/04/02 05:41:29;;;;;;;5.60;5.10;;;;;;;2.78;88.69;99295.85;217620;1267;139841;-67
2023/04/02 05:46:44;;;;;;;8.20;5.60;;;;;;;2.75;89.08;99302.32;217203;1267;140032;-68
2023/04/02 05:51:52;;;;;;;5.60;5.10;;;;;;;2.79;89.09;99308.03;217316;1270;140069;-67
2023/04/02 05:57:02;;;;;;;6.10;4.90;;;;;;;2.81;89.05;99319.46;216575;1267;139567;-67
2023/04/02 06:02:13;;;;;;;6.50;5.60;;;;;;;2.81;89.07;99322.17;217143;1267;139211;-67
2023/04/02 06:07:24;;;;;;;7.50;6.80;;;;;;;2.81;88.99;99330.20;216646;1267;139005;-68
2023/04/02 06:12:49;;;;;;;8.40;7.50;;;;;;;2.80;88.99;99333.43;216635;1269;139043;-68
2023/04/02 06:18:00;;;;;;;6.30;5.70;;;;;;;2.82;89.23;99343.57;216801;1270;138817;-71
2023/04/02 06:23:36;;;;;;;7.30;6.50;;;;;;;2.84;89.21;99351.76;216991;1269;141089;-71
2023/04/02 06:28:45;;;;;;;6.10;5.50;;;;;;;2.83;89.05;99358.72;217637;1267;139081;-69
2023/04/02 06:33:51;;;;;;;6.90;6.20;;;;;;;2.79;88.90;99368.30;216722;1267;140035;-68
2023/04/02 06:39:01;;;;;;;8.00;7.20;;;;;;;2.78;89.02;99377.44;217380;1267;234252;-68
2023/04/02 06:44:17;;;;;;;9.40;6.10;;;;;;;2.78;89.09;99387.76;217536;1267;140054;-67
2023/04/02 06:49:51;;;;;;;5.40;4.90;;;;;;;2.81;89.21;99397.79;217933;1267;139086;-67
2023/04/02 06:54:55;;;;;;;6.30;5.50;;;;;;;2.86;89.19;99408.71;219113;1267;142128;-68
2023/04/02 06:59:58;;;;;;;5.90;5.30;;;;;;;2.91;88.93;99409.93;218874;1267;138850;-69
2023/04/02 07:05:07;;;;;;;6.00;5.50;;;;;;;2.93;88.97;99413.42;216986;1270;139356;-67
2023/04/02 07:10:11;;;;;;;6.70;6.10;;;;;;;2.96;88.95;99416.00;217250;1267;139760;-66
2023/04/02 07:15:18;;;;;;;5.60;5.10;;;;;;;2.97;88.74;99425.24;218036;1269;139077;-66
2023/04/02 07:20:26;;;;;;;5.60;5.10;;;;;;;2.94;88.67;99431.38;216821;1267;138852;-66
2023/04/02 07:25:29;;;;;;;4.60;4.10;;;;;;;2.98;89.07;99439.14;217453;1266;139102;-66
2023/04/02 07:30:32;;;;;;;3.90;3.60;;;;;;;3.05;88.82;99445.98;217104;1267;139245;-68
2023/04/02 07:35:35;;;;;;;3.70;3.40;;;;;;;3.12;88.77;99451.41;217277;1267;138801;-68
2023/04/02 07:40:39;;;;;;;3.90;3.30;;;;;;;3.28;88.61;99455.72;217721;1268;139647;-68
2023/04/02 07:45:42;;;;;;;3.90;3.40;;;;;;;3.51;88.57;99454.66;216589;1270;140098;-66
2023/04/02 07:50:46;;;;;;;4.30;3.90;;;;;;;3.66;88.55;99463.57;217115;1266;140166;-67
2023/04/02 07:55:51;;;;;;;4.20;3.80;;;;;;;3.70;88.18;99475.17;217031;1266;139806;-66
2023/04/02 08:00:54;;;;;;;3.40;3.10;;;;;;;3.65;87.81;99486.56;216962;1270;143657;-69
2023/04/02 08:05:59;;;;;;;4.00;3.60;;;;;;;3.61;87.80;99496.41;217259;1266;139548;-69
2023/04/02 08:11:01;;;;;;;3.60;3.30;;;;;;;3.58;87.43;99502.39;216774;1270;139420;-69
2023/04/02 08:16:06;;;;;;;4.30;3.90;;;;;;;3.56;87.47;99506.59;216493;1267;139991;-67
2023/04/02 08:21:10;;;;;;;3.50;3.20;;;;;;;3.59;87.40;99516.21;217315;1267;140711;-67
2023/04/02 08:26:17;;;;;;;5.00;4.60;;;;;;;3.56;87.49;99527.27;216409;1268;139889;-66
2023/04/02 08:31:20;;;;;;;5.10;3.50;;;;;;;3.56;87.36;99530.60;217261;1267;139650;-66
2023/04/02 08:36:32;;;;;;;4.40;4.00;;;;;;;3.54;87.34;99537.95;217661;1267;139503;-67
2023/04/02 08:41:41;;;;;;;5.70;3.80;;;;;;;3.64;87.59;99542.11;216722;1269;139168;-67
2023/04/02 08:46:54;;;;;;;2.70;2.50;;;;;;;3.77;87.58;99540.59;219281;1267;139765;-68
2023/04/02 08:51:58;;;;;;;3.30;3.00;;;;;;;3.84;87.31;99551.09;220055;1259;138820;-67
2023/04/02 08:57:35;;;;;;;5.40;3.50;;;;;;;3.95;87.18;99558.85;219899;1259;140787;-68
2023/04/02 09:02:46;;;;;;;3.70;3.30;;;;;;;4.07;87.07;99567.45;218817;1259;139110;-69
2023/04/02 09:07:51;;;;;;;4.10;3.30;;;;;;;4.12;86.49;99572.35;218605;1260;139932;-68
2023/04/02 09:12:57;;;;;;;4.10;3.80;;;;;;;4.17;86.39;99574.09;217824;1259;139670;-69
2023/04/02 09:18:12;;;;;;;3.10;2.80;;;;;;;4.25;86.62;99578.87;217058;1264;138830;-69
2023/04/02 09:23:21;;;;;;;3.10;2.50;;;;;;;4.31;86.40;99589.86;217114;1260;139125;-71
2023/04/02 09:28:25;;;;;;;3.40;2.80;;;;;;;4.37;86.51;99597.00;218073;1256;139607;-70
2023/04/02 09:33:57;;;;;;;2.90;2.70;;;;;;;4.43;86.41;99605.79;218727;1257;139170;-71
2023/04/02 09:39:15;;;;;;;3.30;3.00;;;;;;;4.44;85.96;99617.65;218093;1260;138974;-71
2023/04/02 09:44:31;;;;;;;4.20;3.80;;;;;;;4.31;85.72;99625.72;217554;1259;139243;-72
2023/04/02 09:49:40;;;;;;;3.90;3.00;;;;;;;4.19;85.87;99629.91;217496;1260;140343;-70
2023/04/02 09:54:43;;;;;;;2.40;2.10;;;;;;;4.15;85.98;99640.64;217772;1257;139477;-72
2023/04/02 09:59:45;;;;;;;3.40;2.90;;;;;;;4.19;86.26;99647.23;217915;1257;139327;-70
2023/04/02 10:04:48;;;;;;;2.50;2.30;;;;;;;4.11;85.70;99653.27;217679;1257;139909;-66
2023/04/02 10:09:58;;;;;;;3.50;3.20;;;;;;;4.06;86.01;99656.58;218874;1256;138969;-66
2023/04/02 10:15:03;;;;;;;3.50;3.20;;;;;;;4.06;86.04;99665.90;219204;1256;139002;-69
2023/04/02 10:20:19;;;;;;;3.20;2.90;;;;;;;4.04;85.75;99673.39;218575;1261;139160;-69
2023/04/02 10:25:27;;;;;;;2.60;2.40;;;;;;;4.00;85.80;99679.91;219098;1257;139509;-68
2023/04/02 10:31:02;;;;;;;3.20;2.50;;;;;;;3.93;85.59;99688.72;217823;1257;139871;-70
2023/04/02 10:36:32;;;;;;;3.60;3.30;;;;;;;3.92;85.49;99699.51;218200;1256;159003;-68
2023/04/02 10:41:48;;;;;;;3.10;2.80;;;;;;;3.95;85.66;99699.30;218575;1259;139526;-66
2023/04/02 10:47:03;;;;;;;2.70;2.50;;;;;;;4.00;85.78;99701.09;217664;1257;140802;-67
2023/04/02 10:52:20;;;;;;;3.30;2.20;;;;;;;4.08;85.58;99706.62;219325;1259;139840;-69
2023/04/02 10:57:50;;;;;;;3.40;2.90;;;;;;;4.16;85.67;99711.14;218325;1257;139879;-66
2023/04/02 11:02:56;;;;;;;2.40;2.20;;;;;;;4.28;85.87;99713.80;219457;1256;139608;-66
2023/04/02 11:08:26;;;;;;;3.30;2.40;;;;;;;4.31;85.44;99722.02;218615;1257;139968;-66
2023/04/02 11:13:36;;;;;;;2.90;2.50;;;;;;;4.43;85.19;99730.48;217745;1257;138935;-66
2023/04/02 11:18:38;;;;;;;6.50;4.00;;;;;;;4.55;85.17;99735.52;219476;1257;140467;-68
2023/04/02 11:23:58;;;;;;;4.20;3.10;;;;;;;4.71;85.06;99744.52;218189;1257;140151;-71
2023/04/02 11:29:25;;;;;;;4.20;3.00;;;;;;;4.90;84.60;99749.79;218658;1257;140168;-69
2023/04/02 11:34:46;;;;;;;2.30;2.20;;;;;;;4.90;84.61;99761.09;217649;1257;139275;-66
2023/04/02 11:40:20;;;;;;;2.80;2.60;;;;;;;4.72;84.24;99759.70;218767;1257;140490;-65
2023/04/02 11:45:25;;;;;;;3.30;2.40;;;;;;;4.54;84.00;99772.26;217461;1256;138813;-69
2023/04/02 11:50:44;;;;;;;2.50;2.30;;;;;;;4.50;84.36;99776.76;217335;1259;229243;-66
2023/04/02 11:56:17;;;;;;;2.50;2.00;;;;;;;4.48;83.94;99784.25;217839;1256;139243;-65
2023/04/02 12:01:42;;;;;;;3.30;2.90;;;;;;;4.49;84.31;99793.97;218621;1256;140453;-69
2023/04/02 12:07:16;;;;;;;2.00;1.80;;;;;;;4.46;84.10;99798.93;217801;1257;140798;-70
2023/04/02 12:12:42;;;;;;;1.60;1.50;;;;;;;4.37;83.80;99804.80;219372;1256;139813;-72
2023/04/02 12:17:47;;;;;;;1.90;1.80;;;;;;;4.30;83.52;99812.14;217883;1259;139384;-66
2023/04/02 12:22:53;;;;;;;2.10;1.70;;;;;;;4.22;83.53;99815.70;218792;1256;139211;-66
2023/04/02 12:28:06;;;;;;;2.30;2.20;;;;;;;4.13;83.49;99818.95;220485;1257;140075;-70
2023/04/02 12:33:32;;;;;;;2.40;2.30;;;;;;;4.11;83.71;99827.75;218019;1257;140264;-78
2023/04/02 12:39:01;;;;;;;2.20;2.00;;;;;;;4.09;83.73;99833.61;220133;1257;139643;-66
2023/04/02 12:44:26;;;;;;;3.00;2.60;;;;;;;4.08;83.91;99837.33;219820;1257;139791;-68
2023/04/02 12:49:42;;;;;;;3.10;2.90;;;;;;;4.02;83.63;99842.55;219265;1256;140579;-70
2023/04/02 12:54:55;;;;;;;2.80;2.00;;;;;;;3.93;83.29;99848.77;220611;1256;140273;-72
2023/04/02 13:00:19;;;;;;;2.50;2.20;;;;;;;3.84;83.58;99855.62;220231;1256;140482;-70
2023/04/02 13:05:36;;;;;;;1.90;1.80;;;;;;;3.85;83.97;99863.51;217888;1257;139778;-69
2023/04/02 13:10:42;;;;;;;;;;;;;;;3.85;83.95;99868.82;219109;1257;140353;-72
2023/04/02 13:16:03;;;;;;;2.60;2.40;;;;;;;3.83;84.07;99876.34;218182;1259;126621;-67
2023/04/02 13:21:15;;;;;;;2.40;2.10;;;;;;;3.79;84.12;99878.16;217793;1260;140173;-68
2023/04/02 13:26:26;;;;;;;3.60;2.60;;;;;;;3.77;84.29;99879.65;218399;1257;140166;-68
2023/04/02 13:31:31;;;;;;;2.40;2.30;;;;;;;3.77;84.32;99882.52;217688;1261;139036;-67
2023/04/02 13:36:37;;;;;;;2.40;2.20;;;;;;;3.73;84.23;99891.85;218017;1262;139251;-67
2023/04/02 13:41:44;;;;;;;2.50;2.30;;;;;;;3.66;84.01;99898.75;217659;1262;159282;-67
2023/04/02 13:46:48;;;;;;;1.70;1.60;;;;;;;3.66;84.37;99909.35;218287;1258;138919;-68
2023/04/02 13:51:58;;;;;;;3.20;2.90;;;;;;;3.66;84.24;99911.90;218404;1260;139144;-69
2023/04/02 13:57:03;;;;;;;2.90;2.70;;;;;;;3.66;84.70;99918.19;218147;1260;139198;-69
2023/04/02 14:02:12;;;;;;;2.80;2.60;;;;;;;3.66;84.62;99926.09;217357;1262;139182;-68
2023/04/02 14:07:43;;;;;;;4.10;3.80;;;;;;;3.60;84.68;99926.16;218043;1262;139135;-67
2023/04/02 14:13:16;;;;;;;3.70;3.40;;;;;;;3.56;84.62;99928.81;217931;1257;141242;-68
2023/04/02 14:18:40;;;;;;;2.50;2.30;;;;;;;3.43;84.65;99937.77;217965;1262;140038;-67
2023/04/02 14:24:19;;;;;;;5.40;3.90;;;;;;;3.35;84.87;99944.77;217902;1260;141569;-66
2023/04/02 14:29:37;;;;;;;3.60;3.30;;;;;;;3.24;84.88;99954.19;219134;1257;139683;-69
2023/04/02 14:35:11;;;;;;;4.00;3.00;;;;;;;3.16;84.79;99966.10;220125;1257;140711;-69
2023/04/02 14:40:35;;;;;;;3.90;3.40;;;;;;;3.07;85.05;99973.15;219942;1257;525054;-70
2023/04/02 14:45:57;;;;;;;4.40;3.30;;;;;;;2.94;84.85;99982.52;218444;1261;139411;-70
2023/04/02 14:51:29;;;;;;;3.20;2.90;;;;;;;2.82;84.95;99980.83;218458;1258;140461;-71
2023/04/02 14:57:25;;;;;;;3.30;3.00;;;;;;;2.82;85.17;99986.73;218451;1257;140387;-70
2023/04/02 15:02:39;;;;;;;3.30;3.00;;;;;;;2.80;84.95;99995.41;217531;1257;139617;-69
2023/04/02 15:08:15;;;;;;;5.40;2.70;;;;;;;2.74;84.77;100001.20;218564;1257;139279;-69
2023/04/02 15:13:24;;;;;;;4.20;3.80;;;;;;;2.65;84.59;100011.61;217711;1261;140539;-71
2023/04/02 15:18:27;;;;;;;3.30;3.00;;;;;;;2.53;84.48;100027.75;217617;1262;139085;-72
2023/04/02 15:23:53;;;;;;;4.40;3.40;;;;;;;2.38;84.26;100036.32;217517;1261;139645;-72
2023/04/02 15:29:33;;;;;;;4.60;4.10;;;;;;;2.29;84.48;100038.70;218397;1258;139629;-69
2023/04/02 15:34:58;;;;;;;5.00;4.20;;;;;;;2.24;84.36;100046.25;217853;1260;140457;-68
2023/04/02 15:40:24;;;;;;;4.00;3.70;;;;;;;2.19;84.43;100052.66;219688;1257;141123;-68
2023/04/02 15:45:51;;;;;;;10.40;7.70;;;;;;;2.12;84.54;100057.52;217638;1258;152154;-66
2023/04/02 15:51:11;;;;;;;5.90;5.10;;;;;;;2.07;84.51;100065.20;218202;1260;139793;-66
2023/04/02 15:56:46;;;;;;;7.80;6.00;;;;;;;2.02;84.56;100071.88;217674;1259;140879;-65
2023/04/02 16:02:19;;;;;;;8.70;5.90;;;;;;;1.93;84.37;100079.14;218481;1259;140451;-66
2023/04/02 16:07:58;;;;;;;7.20;6.50;;;;;;;1.87;84.60;100084.05;217134;1257;139433;-68
2023/04/02 16:13:13;;;;;;;9.40;7.30;;;;;;;1.82;84.95;100088.13;218186;1257;140388;-68
2023/04/02 16:18:39;;;;;;;8.60;7.30;;;;;;;1.83;84.88;100093.28;217689;1260;140325;-68
2023/04/02 16:23:43;;;;;;;8.40;7.20;;;;;;;1.83;84.91;100100.71;219140;1258;139525;-68
2023/04/02 16:29:09;;;;;;;10.10;8.30;;;;;;;1.82;85.05;100111.83;219530;1257;139879;-68
2023/04/02 16:34:33;;;;;;;12.50;8.40;;;;;;;1.82;84.93;100117.94;220379;1256;140922;-68
2023/04/02 16:39:53;;;;;;;15.90;10.60;;;;;;;1.85;84.89;100123.95;217993;1260;139885;-72
2023/04/02 16:45:26;;;;;;;13.20;8.60;;;;;;;1.85;85.18;100131.08;220349;1257;140300;-68
2023/04/02 16:50:50;;;;;;;10.00;6.70;;;;;;;1.86;85.15;100137.42;219373;1257;140906;-68
2023/04/02 16:56:13;;;;;;;12.40;7.80;;;;;;;1.83;85.19;100146.25;219111;1258;139845;-69
2023/04/02 17:01:25;;;;;;;9.20;7.20;;;;;;;1.77;85.21;100154.33;217398;1257;140861;-66
2023/04/02 17:07:13;;;;;;;12.10;7.70;;;;;;;1.73;85.66;100162.38;218564;1257;140116;-67
2023/04/02 17:12:21;;;;;;;13.70;8.60;;;;;;;1.72;85.52;100168.52;217803;1257;139563;-67
2023/04/02 17:17:24;;;;;;;8.80;7.90;;;;;;;1.66;85.32;100182.39;218473;1259;140244;-67
2023/04/02 17:22:30;;;;;;;9.80;7.90;;;;;;;1.59;85.60;100193.33;217863;1257;140353;-67
2023/04/02 17:27:42;;;;;;;10.70;8.50;;;;;;;1.54;85.57;100202.85;218318;1257;139393;-67
2023/04/02 17:32:46;;;;;;;13.20;8.70;;;;;;;1.55;85.93;100201.48;217611;1257;139746;-65
2023/04/02 17:38:31;;;;;;;11.90;8.40;;;;;;;1.56;86.30;100203.92;218058;1257;139977;-67
2023/04/02 17:43:34;;;;;;;9.30;7.90;;;;;;;1.59;86.26;100208.89;217604;1257;139649;-61
2023/04/02 17:48:46;;;;;;;11.10;9.30;;;;;;;1.61;86.36;100215.91;218884;1257;142442;-62
2023/04/02 17:54:19;;;;;;;10.60;8.20;;;;;;;1.60;86.50;100223.54;218087;1260;143321;-67
2023/04/02 17:59:54;;;;;;;11.60;7.80;;;;;;;1.60;86.46;100228.95;217633;1260;140641;-63
2023/04/02 18:05:29;;;;;;;13.40;8.70;;;;;;;1.60;86.77;100238.09;217568;1257;140370;-66
2023/04/02 18:10:55;;;;;;;13.40;9.90;;;;;;;1.63;86.86;100241.77;218468;1257;139684;-64
2023/04/02 18:16:27;;;;;;;14.00;9.00;;;;;;;1.68;87.11;100245.83;218313;1260;141639;-63
2023/04/02 18:21:41;;;;;;;15.90;9.20;;;;;;;1.71;87.02;100254.26;219160;1257;139957;-66
2023/04/02 18:26:59;;;;;;;13.10;9.70;;;;;;;1.75;87.60;100261.77;219962;1257;140285;-66
2023/04/02 18:32:33;;;;;;;12.30;8.20;;;;;;;1.78;87.23;100269.31;220125;1257;139824;-66
2023/04/02 18:38:02;;;;;;;15.60;9.00;;;;;;;1.83;87.43;100270.82;220074;1257;140305;-67
2023/04/02 18:43:28;;;;;;;11.10;7.30;;;;;;;1.87;87.26;100275.63;219083;1257;139893;-65
2023/04/02 18:48:39;;;;;;;10.70;7.20;;;;;;;1.89;87.32;100277.66;217837;1257;140559;-65
2023/04/02 18:53:42;;;;;;;12.60;7.20;;;;;;;1.90;87.33;100284.80;217874;1257;140161;-65
2023/04/02 18:58:51;;;;;;;12.60;8.40;;;;;;;1.92;87.46;100285.55;218884;1257;140069;-66
2023/04/02 19:04:03;;;;;;;13.30;8.20;;;;;;;1.93;87.58;100288.35;217257;1256;140945;-65
2023/04/02 19:09:42;;;;;;;8.80;6.50;;;;;;;1.93;87.60;100288.65;219559;1257;140091;-66
2023/04/02 19:14:48;;;;;;;12.20;6.90;;;;;;;1.98;87.86;100292.98;217311;1257;139862;-64
2023/04/02 19:20:40;;;;;;;10.70;7.00;;;;;;;2.03;87.85;100299.46;218327;1258;139738;-66
2023/04/02 19:25:43;;;;;;;;;;;;;;;2.08;87.98;100306.30;217021;1256;139325;-65
2023/04/02 19:31:09;;;;;;;18.30;9.50;;;;;;;2.07;87.99;100309.98;218407;1257;126022;-65
2023/04/02 19:36:36;;;;;;;15.30;9.10;;;;;;;2.09;88.22;100308.86;217507;1260;139469;-64
2023/04/02 19:41:50;;;;;;;15.70;10.20;;;;;;;2.13;88.17;100316.12;217799;1256;139743;-66
2023/04/02 19:46:54;;;;;;;12.20;7.70;;;;;;;2.18;88.21;100318.43;217787;1257;141001;-66
2023/04/02 19:51:57;;;;;;;12.20;7.30;;;;;;;2.18;88.35;100318.70;218406;1257;139851;-66
2023/04/02 19:56:59;;;;;;;11.60;6.70;;;;;;;2.22;88.55;100324.54;219115;1257;141517;-67
2023/04/02 20:02:05;;;;;;;9.10;5.20;;;;;;;2.23;88.15;100325.49;217943;1257;139705;-67
2023/04/02 20:07:08;;;;;;;10.90;4.80;;;;;;;2.22;88.05;100327.20;218601;1257;139159;-67
2023/04/02 20:12:12;;;;;;;8.30;3.80;;;;;;;2.19;87.99;100324.58;217614;1260;139722;-65
2023/04/02 20:17:16;;;;;;;6.00;3.00;;;;;;;2.17;88.10;100333.42;219504;1256;140359;-68
2023/04/02 20:22:20;;;;;;;14.70;3.60;;;;;;;2.17;88.15;100336.25;218044;1257;139642;-66
2023/04/02 20:27:24;;;;;;;8.10;2.80;;;;;;;2.15;87.75;100339.38;220041;1256;140109;-66
2023/04/02 20:32:27;;;;;;;13.30;3.20;;;;;;;2.13;87.59;100350.19;220131;1256;140673;-66
2023/04/02 20:37:29;;;;;;;6.50;3.20;;;;;;;2.13;87.42;100351.08;219740;1257;140445;-64
2023/04/02 20:42:32;;;;;;;4.50;3.20;;;;;;;2.11;87.01;100358.43;219009;1257;141603;-65
2023/04/02 20:47:35;;;;;;;6.20;3.00;;;;;;;2.10;87.13;100367.31;219638;1257;139494;-66
2023/04/02 20:52:39;;;;;;;7.10;2.50;;;;;;;2.07;86.89;100370.33;218760;1256;140387;-66
2023/04/02 20:57:42;;;;;;;5.70;2.90;;;;;;;2.06;87.05;100378.48;218186;1257;140166;-67
2023/04/02 21:02:46;;;;;;;5.30;2.40;;;;;;;2.02;86.73;100382.40;218201;1257;140052;-64
2023/04/02 21:07:49;;;;;;;4.90;2.60;;;;;;;1.98;86.69;100386.13;218304;1257;139996;-64
2023/04/02 21:12:51;;;;;;;5.00;2.70;;;;;;;1.93;86.62;100392.03;218133;1256;139645;-64
2023/04/02 21:17:55;;;;;;;4.80;2.50;;;;;;;1.90;86.85;100392.19;217741;1257;139156;-64
2023/04/02 21:22:58;;;;;;;4.00;2.10;;;;;;;1.87;86.49;100399.22;217838;1257;139345;-67
2023/04/02 21:28:02;;;;;;;7.30;2.70;;;;;;;1.82;86.45;100403.80;218137;1257;139349;-65
2023/04/02 21:33:05;;;;;;;9.60;5.20;;;;;;;1.79;86.45;100411.12;217643;1256;139686;-65
2023/04/02 21:38:09;;;;;;;10.00;2.40;;;;;;;1.76;86.16;100407.43;217631;1260;140939;-65
2023/04/02 21:43:13;;;;;;;5.60;2.20;;;;;;;1.72;85.93;100413.77;217879;1256;139674;-66
2023/04/02 21:48:16;;;;;;;3.30;1.80;;;;;;;1.67;85.97;100423.91;218136;1256;139138;-64
2023/04/02 21:53:19;;;;;;;3.70;1.90;;;;;;;1.63;85.47;100428.48;218254;1256;139833;-65
2023/04/02 21:58:23;;;;;;;7.70;3.90;;;;;;;1.58;85.62;100436.19;218677;1257;139185;-66
2023/04/02 22:03:28;;;;;;;2.30;2.10;;;;;;;1.55;85.33;100437.23;218458;1257;139379;-67
2023/04/02 22:08:35;;;;;;;3.50;2.50;;;;;;;1.50;85.27;100440.45;218687;1258;140392;-66
2023/04/02 22:13:39;;;;;;;3.70;1.90;;;;;;;1.43;85.15;100448.66;219631;1256;141826;-72
2023/04/02 22:18:42;;;;;;;2.40;1.80;;;;;;;1.34;84.36;100461.31;218506;1257;139412;-69
2023/04/02 22:23:46;;;;;;;3.20;1.90;;;;;;;1.24;84.51;100465.21;219619;1256;140486;-64
2023/04/02 22:28:51;;;;;;;4.80;2.20;;;;;;;1.13;84.07;100470.05;220101;1258;139579;-66
2023/04/02 22:33:56;;;;;;;5.30;1.80;;;;;;;1.04;84.09;100480.91;220165;1257;140759;-67
2023/04/02 22:39:00;;;;;;;4.90;2.50;;;;;;;0.95;83.39;100479.88;220113;1257;140320;-65
2023/04/02 22:44:03;;;;;;;5.60;2.20;;;;;;;0.85;83.72;100486.35;219587;1256;140337;-66
2023/04/02 22:49:05;;;;;;;5.30;2.00;;;;;;;0.77;83.32;100486.48;219511;1256;139981;-65
2023/04/02 22:54:07;;;;;;;3.80;2.10;;;;;;;0.67;83.57;100490.05;217470;1256;138739;-64
2023/04/02 22:59:09;;;;;;;5.20;2.70;;;;;;;0.57;83.30;100491.20;217421;1257;140654;-65
2023/04/02 23:04:11;;;;;;;6.00;2.10;;;;;;;0.46;83.11;100499.33;217781;1256;139695;-64
2023/04/02 23:09:15;;;;;;;3.60;2.70;;;;;;;0.35;83.20;100498.08;218539;1256;139462;-63
2023/04/02 23:14:18;;;;;;;5.30;1.90;;;;;;;0.27;83.29;100501.66;217923;1256;139455;-65
2023/04/02 23:19:20;;;;;;;4.90;1.70;;;;;;;0.20;83.13;100507.32;217737;1256;139641;-64
2023/04/02 23:24:24;;;;;;;5.20;2.60;;;;;;;0.11;83.26;100514.42;217468;1260;140682;-65
2023/04/02 23:29:26;;;;;;;7.10;3.20;;;;;;;0.03;83.12;100509.23;217961;1257;139573;-64
2023/04/02 23:34:31;;;;;;;3.40;1.60;;;;;;;-0.04;83.03;100505.77;218135;1256;140106;-65
2023/04/02 23:39:35;;;;;;;2.90;1.90;;;;;;;-0.10;82.87;100509.30;217491;1259;139875;-63
2023/04/02 23:44:39;;;;;;;5.50;1.60;;;;;;;-0.17;83.10;100510.36;218350;1256;139471;-67
2023/04/02 23:49:46;;;;;;;7.90;2.10;;;;;;;-0.23;83.03;100511.60;218052;1256;139969;-66
2023/04/02 23:54:50;;;;;;;4.70;1.70;;;;;;;-0.27;83.13;100513.02;217358;1256;140415;-62
2023/04/02 23:59:53;;;;;;;2.50;1.70;;;;;;;-0.30;82.89;100514.56;218407;1257;140160;-64
